<?xml version="1.0" encoding="UTF-8" standalone="no" ?>
<gpx xmlns="http://www.topografix.com/GPX/1/1" xmlns:xsi="http://www.w3.org/2001/XMLSchema-instance" xsi:schemaLocation="http://www.topografix.com/GPX/1/1 http://www.topografix.com/GPX/1/1/gpx.xsd" version="1.1" creator="VisuGPX - https://www.visugpx.com">
  <metadata>
    <name>Saint Marcel les Annonay-Annonay</name>
    <desc><![CDATA[Traversée de Saint-Marcel-les-Annonay à Annonay réalisée avec le CAFGI.]]></desc>
  </metadata>
  <trk>
    <name><![CDATA[Trace-StMarcelAnnonay-MNT]]></name>
    <extensions>
      <line xmlns="http://www.topografix.com/GPX/gpx_style/0/2">
        <color>0000FF</color>
        <width>4</width>
      </line>
    </extensions>
    <trkseg>
      <trkpt lat="45.28559" lon="4.63083">
        <ele>437.021484</ele>
        <time>2007-09-22T07:37:46.000Z</time>
      </trkpt>
      <trkpt lat="45.28534" lon="4.62985">
        <ele>434.610443</ele>
        <time>2007-09-22T07:38:05.783Z</time>
      </trkpt>
      <trkpt lat="45.28539" lon="4.62723">
        <ele>443.687653</ele>
        <time>2007-09-22T07:43:22.853Z</time>
      </trkpt>
      <trkpt lat="45.28572" lon="4.62706">
        <ele>447.032318</ele>
        <time>2007-09-22T07:44:49.107Z</time>
      </trkpt>
      <trkpt lat="45.28577" lon="4.62655">
        <ele>451.679504</ele>
        <time>2007-09-22T07:46:57.630Z</time>
      </trkpt>
      <trkpt lat="45.28605" lon="4.62584">
        <ele>462.762665</ele>
        <time>2007-09-22T07:50:35.935Z</time>
      </trkpt>
      <trkpt lat="45.28622" lon="4.62526">
        <ele>472.683044</ele>
        <time>2007-09-22T07:53:24.457Z</time>
      </trkpt>
      <trkpt lat="45.2864" lon="4.62499">
        <ele>477.954041</ele>
        <time>2007-09-22T07:55:04.220Z</time>
      </trkpt>
      <trkpt lat="45.2867" lon="4.62486">
        <ele>481.113739</ele>
        <time>2007-09-22T07:56:25.418Z</time>
      </trkpt>
      <trkpt lat="45.28645" lon="4.62438">
        <ele>491.247589</ele>
        <time>2007-09-22T07:59:05.596Z</time>
      </trkpt>
      <trkpt lat="45.2872" lon="4.62391">
        <ele>502.092438</ele>
        <time>2007-09-22T08:04:13.064Z</time>
      </trkpt>
      <trkpt lat="45.28831" lon="4.62377">
        <ele>504.27356</ele>
        <time>2007-09-22T08:06:27.259Z</time>
      </trkpt>
      <trkpt lat="45.28862" lon="4.62363">
        <ele>503.770844</ele>
        <time>2007-09-22T08:06:37.926Z</time>
      </trkpt>
      <trkpt lat="45.28927" lon="4.62251">
        <ele>507.70578</ele>
        <time>2007-09-22T08:09:13.926Z</time>
      </trkpt>
      <trkpt lat="45.28942" lon="4.62109">
        <ele>505.221344</ele>
        <time>2007-09-22T08:09:43.687Z</time>
      </trkpt>
      <trkpt lat="45.28909" lon="4.62038">
        <ele>517.427856</ele>
        <time>2007-09-22T08:13:31.909Z</time>
      </trkpt>
      <trkpt lat="45.28909" lon="4.61994">
        <ele>522.248596</ele>
        <time>2007-09-22T08:15:29.915Z</time>
      </trkpt>
      <trkpt lat="45.28947" lon="4.61936">
        <ele>527.422302</ele>
        <time>2007-09-22T08:17:43.813Z</time>
      </trkpt>
      <trkpt lat="45.28995" lon="4.61915">
        <ele>514.937134</ele>
        <time>2007-09-22T08:17:54.813Z</time>
      </trkpt>
      <trkpt lat="45.29018" lon="4.61827">
        <ele>510.607391</ele>
        <time>2007-09-22T08:18:08.177Z</time>
      </trkpt>
      <trkpt lat="45.29" lon="4.61753">
        <ele>508.246124</ele>
        <time>2007-09-22T08:18:21.662Z</time>
      </trkpt>
      <trkpt lat="45.28975" lon="4.61596">
        <ele>498.970734</ele>
        <time>2007-09-22T08:18:46.466Z</time>
      </trkpt>
      <trkpt lat="45.28947" lon="4.61529">
        <ele>504.388245</ele>
        <time>2007-09-22T08:21:05.767Z</time>
      </trkpt>
      <trkpt lat="45.28975" lon="4.61457">
        <ele>505.624573</ele>
        <time>2007-09-22T08:22:16.884Z</time>
      </trkpt>
      <trkpt lat="45.29005" lon="4.61434">
        <ele>499.977173</ele>
        <time>2007-09-22T08:22:24.349Z</time>
      </trkpt>
      <trkpt lat="45.29025" lon="4.61308">
        <ele>502.80249</ele>
        <time>2007-09-22T08:24:29.923Z</time>
      </trkpt>
      <trkpt lat="45.29055" lon="4.61281">
        <ele>492.780182</ele>
        <time>2007-09-22T08:24:37.700Z</time>
      </trkpt>
      <trkpt lat="45.2906" lon="4.61125">
        <ele>496.52298</ele>
        <time>2007-09-22T08:27:15.533Z</time>
      </trkpt>
      <trkpt lat="45.29071" lon="4.6102">
        <ele>491.392487</ele>
        <time>2007-09-22T08:27:31.891Z</time>
      </trkpt>
      <trkpt lat="45.2902" lon="4.60894">
        <ele>497.261841</ele>
        <time>2007-09-22T08:30:37.621Z</time>
      </trkpt>
      <trkpt lat="45.2898" lon="4.6085">
        <ele>502.957489</ele>
        <time>2007-09-22T08:33:05.827Z</time>
      </trkpt>
      <trkpt lat="45.28927" lon="4.60694">
        <ele>510.564026</ele>
        <time>2007-09-22T08:36:55.095Z</time>
      </trkpt>
      <trkpt lat="45.28852" lon="4.60609">
        <ele>520.169678</ele>
        <time>2007-09-22T08:41:01.967Z</time>
      </trkpt>
      <trkpt lat="45.28836" lon="4.60538">
        <ele>529.752747</ele>
        <time>2007-09-22T08:44:21.919Z</time>
      </trkpt>
      <trkpt lat="45.28907" lon="4.605">
        <ele>530.536682</ele>
        <time>2007-09-22T08:45:44.740Z</time>
      </trkpt>
      <trkpt lat="45.28945" lon="4.6048">
        <ele>526.51709</ele>
        <time>2007-09-22T08:45:53.615Z</time>
      </trkpt>
      <trkpt lat="45.28972" lon="4.60368">
        <ele>516.728577</ele>
        <time>2007-09-22T08:46:11.858Z</time>
      </trkpt>
      <trkpt lat="45.28945" lon="4.60269">
        <ele>512.689209</ele>
        <time>2007-09-22T08:46:28.428Z</time>
      </trkpt>
      <trkpt lat="45.28859" lon="4.60222">
        <ele>513.418274</ele>
        <time>2007-09-22T08:48:06.607Z</time>
      </trkpt>
      <trkpt lat="45.28811" lon="4.60164">
        <ele>521.028992</ele>
        <time>2007-09-22T08:51:29.700Z</time>
      </trkpt>
      <trkpt lat="45.28907" lon="4.60127">
        <ele>493.813202</ele>
        <time>2007-09-22T08:51:51.486Z</time>
      </trkpt>
      <trkpt lat="45.28867" lon="4.59998">
        <ele>486.991089</ele>
        <time>2007-09-22T08:52:13.209Z</time>
      </trkpt>
      <trkpt lat="45.28819" lon="4.59913">
        <ele>487.377563</ele>
        <time>2007-09-22T08:53:32.665Z</time>
      </trkpt>
      <trkpt lat="45.28811" lon="4.59883">
        <ele>487.242798</ele>
        <time>2007-09-22T08:53:53.103Z</time>
      </trkpt>
      <trkpt lat="45.28839" lon="4.59855">
        <ele>480.552612</ele>
        <time>2007-09-22T08:54:00.602Z</time>
      </trkpt>
      <trkpt lat="45.28829" lon="4.59821">
        <ele>481.364319</ele>
        <time>2007-09-22T08:54:36.529Z</time>
      </trkpt>
      <trkpt lat="45.28844" lon="4.59801">
        <ele>479.720612</ele>
        <time>2007-09-22T08:54:41.033Z</time>
      </trkpt>
      <trkpt lat="45.28831" lon="4.59754">
        <ele>482.362823</ele>
        <time>2007-09-22T08:55:54.100Z</time>
      </trkpt>
      <trkpt lat="45.28834" lon="4.59686">
        <ele>483.236115</ele>
        <time>2007-09-22T08:56:50.965Z</time>
      </trkpt>
      <trkpt lat="45.28789" lon="4.59652">
        <ele>487.352081</ele>
        <time>2007-09-22T08:58:41.271Z</time>
      </trkpt>
      <trkpt lat="45.28695" lon="4.59703">
        <ele>504.790009</ele>
        <time>2007-09-22T09:05:04.832Z</time>
      </trkpt>
      <trkpt lat="45.28601" lon="4.59691">
        <ele>515.419983</ele>
        <time>2007-09-22T09:09:41.448Z</time>
      </trkpt>
      <trkpt lat="45.28517" lon="4.59686">
        <ele>527.866089</ele>
        <time>2007-09-22T09:15:01.950Z</time>
      </trkpt>
      <trkpt lat="45.28439" lon="4.59515">
        <ele>538.42865</ele>
        <time>2007-09-22T09:19:55.216Z</time>
      </trkpt>
      <trkpt lat="45.28403" lon="4.5944">
        <ele>538.643738</ele>
        <time>2007-09-22T09:21:00.359Z</time>
      </trkpt>
      <trkpt lat="45.28331" lon="4.59388">
        <ele>544.522522</ele>
        <time>2007-09-22T09:23:44.431Z</time>
      </trkpt>
      <trkpt lat="45.28273" lon="4.59203">
        <ele>542.530029</ele>
        <time>2007-09-22T09:24:32.033Z</time>
      </trkpt>
      <trkpt lat="45.28253" lon="4.59119">
        <ele>547.06897</ele>
        <time>2007-09-22T09:26:38.746Z</time>
      </trkpt>
      <trkpt lat="45.28224" lon="4.5908">
        <ele>553.054321</ele>
        <time>2007-09-22T09:29:10.946Z</time>
      </trkpt>
      <trkpt lat="45.28149" lon="4.58825">
        <ele>563.172363</ele>
        <time>2007-09-22T09:34:51.546Z</time>
      </trkpt>
      <trkpt lat="45.28093" lon="4.58807">
        <ele>570.907898</ele>
        <time>2007-09-22T09:38:30.419Z</time>
      </trkpt>
      <trkpt lat="45.28051" lon="4.58746">
        <ele>571.729858</ele>
        <time>2007-09-22T09:39:38.278Z</time>
      </trkpt>
      <trkpt lat="45.27983" lon="4.58737">
        <ele>582.476135</ele>
        <time>2007-09-22T09:43:58.626Z</time>
      </trkpt>
      <trkpt lat="45.27859" lon="4.58645">
        <ele>594.650024</ele>
        <time>2007-09-22T09:49:17.805Z</time>
      </trkpt>
      <trkpt lat="45.27764" lon="4.58623">
        <ele>602.027954</ele>
        <time>2007-09-22T09:52:39.338Z</time>
      </trkpt>
      <trkpt lat="45.27705" lon="4.58693">
        <ele>620.340027</ele>
        <time>2007-09-22T09:57:32.336Z</time>
      </trkpt>
      <trkpt lat="45.27657" lon="4.58724">
        <ele>630.007935</ele>
        <time>2007-09-22T10:00:53.329Z</time>
      </trkpt>
      <trkpt lat="45.27507" lon="4.58728">
        <ele>651.062683</ele>
        <time>2007-09-22T10:10:25.253Z</time>
      </trkpt>
      <trkpt lat="45.275" lon="4.58684">
        <ele>649.02124</ele>
        <time>2007-09-22T10:10:31.738Z</time>
      </trkpt>
      <trkpt lat="45.27444" lon="4.58618">
        <ele>653.037781</ele>
        <time>2007-09-22T10:12:41.910Z</time>
      </trkpt>
      <trkpt lat="45.27507" lon="4.58592">
        <ele>643.446899</ele>
        <time>2007-09-22T10:12:56.278Z</time>
      </trkpt>
      <trkpt lat="45.2749" lon="4.5846">
        <ele>650.15448</ele>
        <time>2007-09-22T10:16:05.554Z</time>
      </trkpt>
      <trkpt lat="45.27539" lon="4.5842">
        <ele>643.423767</ele>
        <time>2007-09-22T10:16:17.931Z</time>
      </trkpt>
      <trkpt lat="45.27598" lon="4.58337">
        <ele>647.69873</ele>
        <time>2007-09-22T10:18:42.820Z</time>
      </trkpt>
      <trkpt lat="45.27617" lon="4.58266">
        <ele>656.154175</ele>
        <time>2007-09-22T10:22:06.591Z</time>
      </trkpt>
      <trkpt lat="45.27569" lon="4.58151">
        <ele>663.474792</ele>
        <time>2007-09-22T10:25:25.414Z</time>
      </trkpt>
      <trkpt lat="45.27521" lon="4.58079">
        <ele>670.114868</ele>
        <time>2007-09-22T10:28:16.682Z</time>
      </trkpt>
      <trkpt lat="45.27526" lon="4.58037">
        <ele>668.991821</ele>
        <time>2007-09-22T10:28:24.406Z</time>
      </trkpt>
      <trkpt lat="45.27546" lon="4.58014">
        <ele>671.26001</ele>
        <time>2007-09-22T10:29:23.692Z</time>
      </trkpt>
      <trkpt lat="45.27645" lon="4.57937">
        <ele>681.499268</ele>
        <time>2007-09-22T10:33:49.717Z</time>
      </trkpt>
      <trkpt lat="45.27711" lon="4.57845">
        <ele>696.961426</ele>
        <time>2007-09-22T10:39:42.153Z</time>
      </trkpt>
      <trkpt lat="45.27719" lon="4.57711">
        <ele>718.538757</ele>
        <time>2007-09-22T10:45:42.903Z</time>
      </trkpt>
      <trkpt lat="45.27711" lon="4.57623">
        <ele>730.215088</ele>
        <time>2007-09-22T10:49:40.928Z</time>
      </trkpt>
      <trkpt lat="45.27682" lon="4.57408">
        <ele>763.642273</ele>
        <time>2007-09-22T10:59:28.173Z</time>
      </trkpt>
      <trkpt lat="45.27705" lon="4.57274">
        <ele>778.799988</ele>
        <time>2007-09-22T11:05:38.172Z</time>
      </trkpt>
      <trkpt lat="45.27637" lon="4.57102">
        <ele>808.099976</ele>
        <time>2007-09-22T11:14:27.405Z</time>
      </trkpt>
      <trkpt lat="45.27594" lon="4.56972">
        <ele>825.841187</ele>
        <time>2007-09-22T11:20:52.744Z</time>
      </trkpt>
      <trkpt lat="45.27541" lon="4.56822">
        <ele>839.631226</ele>
        <time>2007-09-22T11:26:55.540Z</time>
      </trkpt>
      <trkpt lat="45.27504" lon="4.56761">
        <ele>846.270935</ele>
        <time>2007-09-22T11:29:50.444Z</time>
      </trkpt>
      <trkpt lat="45.27427" lon="4.56715">
        <ele>854.159973</ele>
        <time>2007-09-22T11:33:14.106Z</time>
      </trkpt>
      <trkpt lat="45.2743" lon="4.56654">
        <ele>852.02002</ele>
        <time>2007-09-22T11:33:24.012Z</time>
      </trkpt>
      <trkpt lat="45.2737" lon="4.566">
        <ele>856.522522</ele>
        <time>2007-09-22T11:35:38.558Z</time>
      </trkpt>
      <trkpt lat="45.27364" lon="4.56508">
        <ele>859.630005</ele>
        <time>2007-09-22T11:37:29.321Z</time>
      </trkpt>
      <trkpt lat="45.27274" lon="4.56443">
        <ele>867.965332</ele>
        <time>2007-09-22T11:41:11.112Z</time>
      </trkpt>
      <trkpt lat="45.27177" lon="4.56435">
        <ele>874.771301</ele>
        <time>2007-09-22T11:44:24.416Z</time>
      </trkpt>
      <trkpt lat="45.27103" lon="4.56581">
        <ele>884.232605</ele>
        <time>2007-09-22T11:48:45.533Z</time>
      </trkpt>
      <trkpt lat="45.27134" lon="4.56669">
        <ele>886.867432</ele>
        <time>2007-09-22T11:50:30.592Z</time>
      </trkpt>
      <trkpt lat="45.2708" lon="4.56654">
        <ele>890.279175</ele>
        <time>2007-09-22T11:52:13.799Z</time>
      </trkpt>
      <trkpt lat="45.27023" lon="4.56684">
        <ele>892.638489</ele>
        <time>2007-09-22T11:53:47.016Z</time>
      </trkpt>
      <trkpt lat="45.27052" lon="4.56738">
        <ele>895.610718</ele>
        <time>2007-09-22T11:55:16.790Z</time>
      </trkpt>
      <trkpt lat="45.27097" lon="4.56838">
        <ele>903.526245</ele>
        <time>2007-09-22T11:58:41.053Z</time>
      </trkpt>
      <trkpt lat="45.2712" lon="4.56995">
        <ele>913.342346</ele>
        <time>2007-09-22T12:02:58.453Z</time>
      </trkpt>
      <trkpt lat="45.27131" lon="4.57129">
        <ele>926.186279</ele>
        <time>2007-09-22T12:09:00.386Z</time>
      </trkpt>
      <trkpt lat="45.27086" lon="4.57209">
        <ele>936.14502</ele>
        <time>2007-09-22T12:13:35.145Z</time>
      </trkpt>
      <trkpt lat="45.2704" lon="4.5732">
        <ele>937.808044</ele>
        <time>2007-09-22T12:15:22.838Z</time>
      </trkpt>
      <trkpt lat="45.26987" lon="4.57416">
        <ele>922.618469</ele>
        <time>2007-09-22T12:15:41.646Z</time>
      </trkpt>
      <trkpt lat="45.2695" lon="4.57412">
        <ele>926.914368</ele>
        <time>2007-09-22T12:17:34.335Z</time>
      </trkpt>
      <trkpt lat="45.26876" lon="4.57447">
        <ele>931.14679</ele>
        <time>2007-09-22T12:19:52.994Z</time>
      </trkpt>
      <trkpt lat="45.26816" lon="4.57546">
        <ele>921.414001</ele>
        <time>2007-09-22T12:20:13.133Z</time>
      </trkpt>
      <trkpt lat="45.26762" lon="4.57642">
        <ele>914.750549</ele>
        <time>2007-09-22T12:20:32.077Z</time>
      </trkpt>
      <trkpt lat="45.26759" lon="4.57699">
        <ele>916.43335</ele>
        <time>2007-09-22T12:21:36.534Z</time>
      </trkpt>
      <trkpt lat="45.2672" lon="4.57765">
        <ele>910.493469</ele>
        <time>2007-09-22T12:21:49.818Z</time>
      </trkpt>
      <trkpt lat="45.26697" lon="4.57864">
        <ele>907.619629</ele>
        <time>2007-09-22T12:22:08.418Z</time>
      </trkpt>
      <trkpt lat="45.26671" lon="4.57971">
        <ele>907.000549</ele>
        <time>2007-09-22T12:22:37.294Z</time>
      </trkpt>
      <trkpt lat="45.2662" lon="4.57987">
        <ele>901.81134</ele>
        <time>2007-09-22T12:22:48.733Z</time>
      </trkpt>
      <trkpt lat="45.26617" lon="4.58109">
        <ele>906.813843</ele>
        <time>2007-09-22T12:25:25.669Z</time>
      </trkpt>
      <trkpt lat="45.26614" lon="4.58312">
        <ele>911.705139</ele>
        <time>2007-09-22T12:28:51.412Z</time>
      </trkpt>
      <trkpt lat="45.26603" lon="4.58366">
        <ele>904.519531</ele>
        <time>2007-09-22T12:29:00.077Z</time>
      </trkpt>
      <trkpt lat="45.26623" lon="4.58519">
        <ele>904.078674</ele>
        <time>2007-09-22T12:30:42.037Z</time>
      </trkpt>
      <trkpt lat="45.26592" lon="4.58692">
        <ele>913.016846</ele>
        <time>2007-09-22T12:34:54.079Z</time>
      </trkpt>
      <trkpt lat="45.26495" lon="4.58864">
        <ele>910.148804</ele>
        <time>2007-09-22T12:35:43.110Z</time>
      </trkpt>
      <trkpt lat="45.26506" lon="4.58933">
        <ele>911.774658</ele>
        <time>2007-09-22T12:36:53.322Z</time>
      </trkpt>
      <trkpt lat="45.26592" lon="4.59113">
        <ele>909.572815</ele>
        <time>2007-09-22T12:37:44.215Z</time>
      </trkpt>
      <trkpt lat="45.26592" lon="4.59446">
        <ele>915.285706</ele>
        <time>2007-09-22T12:42:42.438Z</time>
      </trkpt>
      <trkpt lat="45.26637" lon="4.5958">
        <ele>923.726318</ele>
        <time>2007-09-22T12:46:28.634Z</time>
      </trkpt>
      <trkpt lat="45.2662" lon="4.59806">
        <ele>900.252502</ele>
        <time>2007-09-22T12:47:03.671Z</time>
      </trkpt>
      <trkpt lat="45.26626" lon="4.59925">
        <ele>896.992004</ele>
        <time>2007-09-22T12:47:25.025Z</time>
      </trkpt>
      <trkpt lat="45.26626" lon="4.60036">
        <ele>897.394531</ele>
        <time>2007-09-22T12:48:46.061Z</time>
      </trkpt>
      <trkpt lat="45.26697" lon="4.6004">
        <ele>900.089966</ele>
        <time>2007-09-22T12:50:33.683Z</time>
      </trkpt>
      <trkpt lat="45.26705" lon="4.60162">
        <ele>906.270569</ele>
        <time>2007-09-22T12:53:27.376Z</time>
      </trkpt>
      <trkpt lat="45.26791" lon="4.60105">
        <ele>893.276794</ele>
        <time>2007-09-22T12:53:48.160Z</time>
      </trkpt>
      <trkpt lat="45.26901" lon="4.6007">
        <ele>876.631958</ele>
        <time>2007-09-22T12:54:12.850Z</time>
      </trkpt>
      <trkpt lat="45.26958" lon="4.60028">
        <ele>867.607971</ele>
        <time>2007-09-22T12:54:26.913Z</time>
      </trkpt>
      <trkpt lat="45.26992" lon="4.60032">
        <ele>863.329773</ele>
        <time>2007-09-22T12:54:34.385Z</time>
      </trkpt>
      <trkpt lat="45.2704" lon="4.6009">
        <ele>855.542297</ele>
        <time>2007-09-22T12:54:48.186Z</time>
      </trkpt>
      <trkpt lat="45.27058" lon="4.60231">
        <ele>833.162109</ele>
        <time>2007-09-22T12:55:10.275Z</time>
      </trkpt>
      <trkpt lat="45.26981" lon="4.60304">
        <ele>818.676086</ele>
        <time>2007-09-22T12:55:30.549Z</time>
      </trkpt>
      <trkpt lat="45.26876" lon="4.60484">
        <ele>792.973755</ele>
        <time>2007-09-22T12:56:06.587Z</time>
      </trkpt>
      <trkpt lat="45.26807" lon="4.60549">
        <ele>788.198303</ele>
        <time>2007-09-22T12:56:24.412Z</time>
      </trkpt>
      <trkpt lat="45.26717" lon="4.60691">
        <ele>772.590576</ele>
        <time>2007-09-22T12:56:53.868Z</time>
      </trkpt>
      <trkpt lat="45.26654" lon="4.6094">
        <ele>748.679016</ele>
        <time>2007-09-22T12:57:34.657Z</time>
      </trkpt>
      <trkpt lat="45.26657" lon="4.61028">
        <ele>743.482605</ele>
        <time>2007-09-22T12:57:48.238Z</time>
      </trkpt>
      <trkpt lat="45.2662" lon="4.61097">
        <ele>740.115234</ele>
        <time>2007-09-22T12:58:01.659Z</time>
      </trkpt>
      <trkpt lat="45.26598" lon="4.61204">
        <ele>725.294983</ele>
        <time>2007-09-22T12:58:18.843Z</time>
      </trkpt>
      <trkpt lat="45.26586" lon="4.61296">
        <ele>720.395752</ele>
        <time>2007-09-22T12:58:33.267Z</time>
      </trkpt>
      <trkpt lat="45.26546" lon="4.61381">
        <ele>714.27771</ele>
        <time>2007-09-22T12:58:49.029Z</time>
      </trkpt>
      <trkpt lat="45.26515" lon="4.61576">
        <ele>704.696777</ele>
        <time>2007-09-22T12:59:19.847Z</time>
      </trkpt>
      <trkpt lat="45.26464" lon="4.61591">
        <ele>695.47821</ele>
        <time>2007-09-22T12:59:31.254Z</time>
      </trkpt>
      <trkpt lat="45.26433" lon="4.6166">
        <ele>689.129578</ele>
        <time>2007-09-22T12:59:43.873Z</time>
      </trkpt>
      <trkpt lat="45.2643" lon="4.61718">
        <ele>684.078308</ele>
        <time>2007-09-22T12:59:52.838Z</time>
      </trkpt>
      <trkpt lat="45.26458" lon="4.61856">
        <ele>683.026978</ele>
        <time>2007-09-22T13:00:28.203Z</time>
      </trkpt>
      <trkpt lat="45.2639" lon="4.61878">
        <ele>676.762817</ele>
        <time>2007-09-22T13:00:43.478Z</time>
      </trkpt>
      <trkpt lat="45.26271" lon="4.61871">
        <ele>660.509399</ele>
        <time>2007-09-22T13:01:09.564Z</time>
      </trkpt>
      <trkpt lat="45.26208" lon="4.61901">
        <ele>646.081421</ele>
        <time>2007-09-22T13:01:24.117Z</time>
      </trkpt>
      <trkpt lat="45.26131" lon="4.62047">
        <ele>643.904236</ele>
        <time>2007-09-22T13:02:05.461Z</time>
      </trkpt>
      <trkpt lat="45.26001" lon="4.62078">
        <ele>636.453186</ele>
        <time>2007-09-22T13:02:34.113Z</time>
      </trkpt>
      <trkpt lat="45.25978" lon="4.62135">
        <ele>636.256226</ele>
        <time>2007-09-22T13:03:17.021Z</time>
      </trkpt>
      <trkpt lat="45.25941" lon="4.62319">
        <ele>631.079651</ele>
        <time>2007-09-22T13:03:51.407Z</time>
      </trkpt>
      <trkpt lat="45.25884" lon="4.6251">
        <ele>628.672913</ele>
        <time>2007-09-22T13:04:38.695Z</time>
      </trkpt>
      <trkpt lat="45.25884" lon="4.62537">
        <ele>627.08606</ele>
        <time>2007-09-22T13:04:42.858Z</time>
      </trkpt>
      <trkpt lat="45.25822" lon="4.62664">
        <ele>614.450806</ele>
        <time>2007-09-22T13:05:06.686Z</time>
      </trkpt>
      <trkpt lat="45.25748" lon="4.62683">
        <ele>611.364197</ele>
        <time>2007-09-22T13:05:25.411Z</time>
      </trkpt>
      <trkpt lat="45.2562" lon="4.6266">
        <ele>615.08783</ele>
        <time>2007-09-22T13:08:18.750Z</time>
      </trkpt>
      <trkpt lat="45.25538" lon="4.62671">
        <ele>616.8797</ele>
        <time>2007-09-22T13:10:00.412Z</time>
      </trkpt>
      <trkpt lat="45.25489" lon="4.62779">
        <ele>610.799988</ele>
        <time>2007-09-22T13:10:20.223Z</time>
      </trkpt>
      <trkpt lat="45.25489" lon="4.62851">
        <ele>604.832581</ele>
        <time>2007-09-22T13:10:31.324Z</time>
      </trkpt>
      <trkpt lat="45.25532" lon="4.62978">
        <ele>596.045837</ele>
        <time>2007-09-22T13:10:53.053Z</time>
      </trkpt>
      <trkpt lat="45.25532" lon="4.63008">
        <ele>590.574707</ele>
        <time>2007-09-22T13:10:57.678Z</time>
      </trkpt>
      <trkpt lat="45.25563" lon="4.63089">
        <ele>588.398926</ele>
        <time>2007-09-22T13:11:15.070Z</time>
      </trkpt>
      <trkpt lat="45.25526" lon="4.63158">
        <ele>575.641235</ele>
        <time>2007-09-22T13:11:28.443Z</time>
      </trkpt>
      <trkpt lat="45.25538" lon="4.63265">
        <ele>567.683899</ele>
        <time>2007-09-22T13:11:45.149Z</time>
      </trkpt>
      <trkpt lat="45.25526" lon="4.63307">
        <ele>565.878601</ele>
        <time>2007-09-22T13:11:52.081Z</time>
      </trkpt>
      <trkpt lat="45.25481" lon="4.63311">
        <ele>566.930786</ele>
        <time>2007-09-22T13:12:48.758Z</time>
      </trkpt>
      <trkpt lat="45.25341" lon="4.63257">
        <ele>576.472473</ele>
        <time>2007-09-22T13:17:28.358Z</time>
      </trkpt>
      <trkpt lat="45.25219" lon="4.63188">
        <ele>587.63678</ele>
        <time>2007-09-22T13:22:22.866Z</time>
      </trkpt>
      <trkpt lat="45.25174" lon="4.63154">
        <ele>588.432861</ele>
        <time>2007-09-22T13:23:21.651Z</time>
      </trkpt>
      <trkpt lat="45.25051" lon="4.63116">
        <ele>588.99115</ele>
        <time>2007-09-22T13:25:31.327Z</time>
      </trkpt>
      <trkpt lat="45.2512" lon="4.63215">
        <ele>593.810852</ele>
        <time>2007-09-22T13:28:19.869Z</time>
      </trkpt>
      <trkpt lat="45.25185" lon="4.63261">
        <ele>602.164917</ele>
        <time>2007-09-22T13:31:58.561Z</time>
      </trkpt>
      <trkpt lat="45.25299" lon="4.63453">
        <ele>627.531372</ele>
        <time>2007-09-22T13:43:12.629Z</time>
      </trkpt>
      <trkpt lat="45.25302" lon="4.63529">
        <ele>633.257141</ele>
        <time>2007-09-22T13:45:40.207Z</time>
      </trkpt>
      <trkpt lat="45.25327" lon="4.63583">
        <ele>637.304749</ele>
        <time>2007-09-22T13:47:25.789Z</time>
      </trkpt>
      <trkpt lat="45.25398" lon="4.63683">
        <ele>633.423706</ele>
        <time>2007-09-22T13:47:51.219Z</time>
      </trkpt>
      <trkpt lat="45.25464" lon="4.63836">
        <ele>628.876221</ele>
        <time>2007-09-22T13:48:24.240Z</time>
      </trkpt>
      <trkpt lat="45.25486" lon="4.63912">
        <ele>630.406189</ele>
        <time>2007-09-22T13:49:39.692Z</time>
      </trkpt>
      <trkpt lat="45.25515" lon="4.64031">
        <ele>627.664429</ele>
        <time>2007-09-22T13:50:04.087Z</time>
      </trkpt>
      <trkpt lat="45.25549" lon="4.64077">
        <ele>625.504395</ele>
        <time>2007-09-22T13:50:15.258Z</time>
      </trkpt>
      <trkpt lat="45.25541" lon="4.64253">
        <ele>621.108398</ele>
        <time>2007-09-22T13:50:47.903Z</time>
      </trkpt>
      <trkpt lat="45.2556" lon="4.64318">
        <ele>620.212769</ele>
        <time>2007-09-22T13:51:03.640Z</time>
      </trkpt>
      <trkpt lat="45.25538" lon="4.64384">
        <ele>611.952026</ele>
        <time>2007-09-22T13:51:14.899Z</time>
      </trkpt>
      <trkpt lat="45.25518" lon="4.64453">
        <ele>611.502502</ele>
        <time>2007-09-22T13:51:33.735Z</time>
      </trkpt>
      <trkpt lat="45.25529" lon="4.64587">
        <ele>615.903931</ele>
        <time>2007-09-22T13:54:14.019Z</time>
      </trkpt>
      <trkpt lat="45.25558" lon="4.64675">
        <ele>623.409668</ele>
        <time>2007-09-22T13:57:28.239Z</time>
      </trkpt>
      <trkpt lat="45.25546" lon="4.64774">
        <ele>639.60498</ele>
        <time>2007-09-22T14:01:57.820Z</time>
      </trkpt>
      <trkpt lat="45.2556" lon="4.64874">
        <ele>647.605652</ele>
        <time>2007-09-22T14:05:25.505Z</time>
      </trkpt>
      <trkpt lat="45.2547" lon="4.6479">
        <ele>665.617065</ele>
        <time>2007-09-22T14:12:16.026Z</time>
      </trkpt>
      <trkpt lat="45.25391" lon="4.64757">
        <ele>671.55127</ele>
        <time>2007-09-22T14:15:02.382Z</time>
      </trkpt>
      <trkpt lat="45.25348" lon="4.64717">
        <ele>674.103027</ele>
        <time>2007-09-22T14:16:31.003Z</time>
      </trkpt>
      <trkpt lat="45.25565" lon="4.64891">
        <ele>647.835571</ele>
        <time>2007-09-22T14:17:25.580Z</time>
      </trkpt>
      <trkpt lat="45.25552" lon="4.65">
        <ele>651.227295</ele>
        <time>2007-09-22T14:19:33.603Z</time>
      </trkpt>
      <trkpt lat="45.25589" lon="4.65127">
        <ele>626.214722</ele>
        <time>2007-09-22T14:19:54.795Z</time>
      </trkpt>
      <trkpt lat="45.25549" lon="4.65127">
        <ele>624.984558</ele>
        <time>2007-09-22T14:20:05.823Z</time>
      </trkpt>
      <trkpt lat="45.25495" lon="4.65085">
        <ele>627.71106</ele>
        <time>2007-09-22T14:21:48.199Z</time>
      </trkpt>
      <trkpt lat="45.25433" lon="4.65058">
        <ele>612.724976</ele>
        <time>2007-09-22T14:22:02.402Z</time>
      </trkpt>
      <trkpt lat="45.25484" lon="4.65215">
        <ele>589.830017</ele>
        <time>2007-09-22T14:22:29.062Z</time>
      </trkpt>
      <trkpt lat="45.25344" lon="4.65142">
        <ele>563.289185</ele>
        <time>2007-09-22T14:23:01.726Z</time>
      </trkpt>
      <trkpt lat="45.2537" lon="4.65261">
        <ele>545.03595</ele>
        <time>2007-09-22T14:23:20.938Z</time>
      </trkpt>
      <trkpt lat="45.25305" lon="4.65249">
        <ele>531.184753</ele>
        <time>2007-09-22T14:23:35.294Z</time>
      </trkpt>
      <trkpt lat="45.25325" lon="4.65334">
        <ele>518.349854</ele>
        <time>2007-09-22T14:23:49.113Z</time>
      </trkpt>
      <trkpt lat="45.25279" lon="4.65345">
        <ele>507.809784</ele>
        <time>2007-09-22T14:23:59.330Z</time>
      </trkpt>
      <trkpt lat="45.25245" lon="4.65318">
        <ele>505.965546</ele>
        <time>2007-09-22T14:24:08.486Z</time>
      </trkpt>
      <trkpt lat="45.25196" lon="4.65322">
        <ele>498.421722</ele>
        <time>2007-09-22T14:24:19.236Z</time>
      </trkpt>
      <trkpt lat="45.25222" lon="4.65441">
        <ele>487.872711</ele>
        <time>2007-09-22T14:24:38.448Z</time>
      </trkpt>
      <trkpt lat="45.25137" lon="4.65464">
        <ele>479.26001</ele>
        <time>2007-09-22T14:24:57.400Z</time>
      </trkpt>
      <trkpt lat="45.2502" lon="4.65598">
        <ele>461.103302</ele>
        <time>2007-09-22T14:25:30.319Z</time>
      </trkpt>
      <trkpt lat="45.24921" lon="4.65682">
        <ele>448.232544</ele>
        <time>2007-09-22T14:25:55.576Z</time>
      </trkpt>
      <trkpt lat="45.24887" lon="4.65667">
        <ele>446.338745</ele>
        <time>2007-09-22T14:26:03.532Z</time>
      </trkpt>
      <trkpt lat="45.24802" lon="4.65717">
        <ele>439.480927</ele>
        <time>2007-09-22T14:26:23.683Z</time>
      </trkpt>
      <trkpt lat="45.24747" lon="4.65912">
        <ele>426.06189</ele>
        <time>2007-09-22T14:26:56.076Z</time>
      </trkpt>
      <trkpt lat="45.24634" lon="4.66123">
        <ele>410.539185</ele>
        <time>2007-09-22T14:27:36.956Z</time>
      </trkpt>
      <trkpt lat="45.24406" lon="4.66383">
        <ele>394.248749</ele>
        <time>2007-09-22T14:28:40.937Z</time>
      </trkpt>
    </trkseg>
  </trk>
</gpx>